This is the latest recevied weather packets stored in our database for station/object N6RDS-8. If no packets are shown the sender has not sent any weather packets the latest 10 day(s).
| Time | Temp. | Humidity | Pressure | Rain* | Wind** | Luminosity | Snow |
|---|---|---|---|---|---|---|---|
| 1777759773 | 28.33° C | 28% | 1018.5 hPa | 0 mm | - | 319 W/m² | - |
| 1777759469 | 27.78° C | 29% | 1018.6 hPa | 0 mm | - | 557 W/m² | - |
| 1777759166 | 26.67° C | 30% | 1018.5 hPa | 0 mm | - | 747 W/m² | - |
| 1777758863 | 26.67° C | 30% | 1018.8 hPa | 0 mm | - | 508 W/m² | - |
| 1777758560 | 27.22° C | 30% | 1018.7 hPa | 0 mm | - | 193 W/m² | - |
| 1777758256 | 27.78° C | 29% | 1018.7 hPa | 0 mm | - | 698 W/m² | - |
| 1777757954 | 27.22° C | 30% | 1018.6 hPa | 0 mm | - | 720 W/m² | - |
| 1777757650 | 27.22° C | 31% | 1018.7 hPa | 0 mm | - | 758 W/m² | - |
| 1777757350 | 27.22° C | 31% | 1018.7 hPa | 0 mm | - | 757 W/m² | - |
| 1777757048 | 26.11° C | 32% | 1019 hPa | 0 mm | - | 764 W/m² | - |
| 1777756745 | 27.22° C | 30% | 1019.1 hPa | 0 mm | - | 784 W/m² | - |
| 1777756440 | 26.11° C | 31% | 1019.3 hPa | 0 mm | - | 759 W/m² | - |
| 1777756138 | 27.78° C | 30% | 1019.3 hPa | 0 mm | - | 723 W/m² | - |
| 1777755834 | 27.78° C | 28% | 1019.4 hPa | 0 mm | - | 783 W/m² | - |
| 1777755532 | 27.22° C | 30% | 1019.6 hPa | 0 mm | - | 726 W/m² | - |
| 1777755228 | 26.67° C | 33% | 1019.5 hPa | 0 mm | - | 783 W/m² | - |
| 1777754925 | 27.22° C | 32% | 1019.6 hPa | 0 mm | - | 818 W/m² | - |
| 1777754622 | 26.67° C | 32% | 1019.6 hPa | 0 mm | - | 772 W/m² | - |
| 1777754320 | 26.11° C | 34% | 1019.7 hPa | 0 mm | - | 728 W/m² | - |
| 1777754017 | 27.22° C | 32% | 1019.8 hPa | 0 mm | - | 786 W/m² | - |
| 1777753713 | 27.22° C | 33% | 1019.7 hPa | 0 mm | - | 842 W/m² | - |
| 1777753410 | 26.67° C | 33% | 1020 hPa | 0 mm | - | 820 W/m² | - |
| 1777753108 | 26.67° C | 33% | 1019.9 hPa | 0 mm | - | 859 W/m² | - |
| 1777752804 | 26.67° C | 34% | 1020.1 hPa | 0 mm | - | 826 W/m² | - |
| 1777752500 | 26.67° C | 34% | 1020.1 hPa | 0 mm | - | 449 W/m² | - |
* Rain latest hour (hover to see other rain measurements)
** Current wind speed in m/s (hover to see current wind gust speed)